sensor_id;sensor_type;location;lat;lon;timestamp;pressure;altitude;pressure_sealevel;temperature;humidity
64025;BME280;50266;57.446;26.936;2023-09-19T00:00:24;98152.48;;;12.77;100.0
64025;BME280;50266;57.446;26.936;2023-09-19T00:01:23;98151.77;;;12.79;100.0
64025;BME280;50266;57.446;26.936;2023-09-19T00:02:23;98148.74;;;12.77;100.0
64025;BME280;50266;57.446;26.936;2023-09-19T00:03:24;98153.89;;;12.82;100.0
64025;BME280;50266;57.446;26.936;2023-09-19T00:04:23;98147.91;;;12.84;100.0
64025;BME280;50266;57.446;26.936;2023-09-19T00:05:24;98155.95;;;12.87;100.0
64025;BME280;50266;57.446;26.936;2023-09-19T00:06:23;98158.49;;;12.84;100.0
64025;BME280;50266;57.446;26.936;2023-09-19T00:07:24;98160.87;;;12.87;100.0
64025;BME280;50266;57.446;26.936;2023-09-19T00:08:24;98158.12;;;12.87;100.0
64025;BME280;50266;57.446;26.936;2023-09-19T00:09:24;98156.12;;;12.91;100.0
64025;BME280;50266;57.446;26.936;2023-09-19T00:10:24;98154.59;;;12.95;100.0
64025;BME280;50266;57.446;26.936;2023-09-19T00:11:24;98153.82;;;12.99;100.0
64025;BME280;50266;57.446;26.936;2023-09-19T00:12:24;98153.94;;;13.02;100.0
64025;BME280;50266;57.446;26.936;2023-09-19T00:13:24;98153.73;;;13.06;100.0
64025;BME280;50266;57.446;26.936;2023-09-19T00:14:24;98145.91;;;13.1;100.0
64025;BME280;50266;57.446;26.936;2023-09-19T00:15:26;98146.77;;;13.11;100.0
64025;BME280;50266;57.446;26.936;2023-09-19T00:16:24;98152.95;;;13.18;100.0
64025;BME280;50266;57.446;26.936;2023-09-19T00:17:24;98149.06;;;13.2;100.0
64025;BME280;50266;57.446;26.936;2023-09-19T00:18:24;98153.14;;;13.19;100.0
64025;BME280;50266;57.446;26.936;2023-09-19T00:19:24;98154.85;;;13.23;100.0
64025;BME280;50266;57.446;26.936;2023-09-19T00:20:24;98151.59;;;13.22;100.0
64025;BME280;50266;57.446;26.936;2023-09-19T00:21:24;98155.03;;;13.24;100.0
64025;BME280;50266;57.446;26.936;2023-09-19T00:22:24;98148.8;;;13.26;100.0
64025;BME280;50266;57.446;26.936;2023-09-19T00:23:24;98152.92;;;13.29;100.0
64025;BME280;50266;57.446;26.936;2023-09-19T00:24:24;98150.81;;;13.3;100.0
64025;BME280;50266;57.446;26.936;2023-09-19T00:25:24;98153.73;;;13.31;100.0
64025;BME280;50266;57.446;26.936;2023-09-19T00:26:24;98151.77;;;13.34;100.0
64025;BME280;50266;57.446;26.936;2023-09-19T00:27:24;98146.59;;;13.33;100.0
64025;BME280;50266;57.446;26.936;2023-09-19T00:28:24;98149.2;;;13.36;100.0
64025;BME280;50266;57.446;26.936;2023-09-19T00:29:24;98144.41;;;13.32;100.0
64025;BME280;50266;57.446;26.936;2023-09-19T00:30:24;98143.14;;;13.28;100.0
64025;BME280;50266;57.446;26.936;2023-09-19T00:31:24;98140.97;;;13.27;100.0
64025;BME280;50266;57.446;26.936;2023-09-19T00:32:24;98139.03;;;13.25;100.0
64025;BME280;50266;57.446;26.936;2023-09-19T00:33:24;98136.27;;;13.24;100.0
64025;BME280;50266;57.446;26.936;2023-09-19T00:34:24;98136.0;;;13.23;100.0
64025;BME280;50266;57.446;26.936;2023-09-19T00:35:24;98135.25;;;13.22;100.0
64025;BME280;50266;57.446;26.936;2023-09-19T00:36:24;98127.7;;;13.19;100.0
64025;BME280;50266;57.446;26.936;2023-09-19T00:37:24;98133.77;;;13.17;100.0
64025;BME280;50266;57.446;26.936;2023-09-19T00:38:24;98131.16;;;13.21;100.0
64025;BME280;50266;57.446;26.936;2023-09-19T00:39:24;98132.06;;;13.28;100.0
64025;BME280;50266;57.446;26.936;2023-09-19T00:40:24;98129.85;;;13.24;100.0
64025;BME280;50266;57.446;26.936;2023-09-19T00:41:24;98132.03;;;13.26;100.0
64025;BME280;50266;57.446;26.936;2023-09-19T00:42:24;98135.61;;;13.24;100.0
64025;BME280;50266;57.446;26.936;2023-09-19T00:43:24;98135.61;;;13.24;100.0
64025;BME280;50266;57.446;26.936;2023-09-19T00:44:24;98133.95;;;13.25;100.0
64025;BME280;50266;57.446;26.936;2023-09-19T00:45:24;98131.03;;;13.26;100.0
64025;BME280;50266;57.446;26.936;2023-09-19T00:46:24;98134.97;;;13.28;100.0
64025;BME280;50266;57.446;26.936;2023-09-19T00:47:24;98141.05;;;13.26;100.0
64025;BME280;50266;57.446;26.936;2023-09-19T00:48:25;98141.28;;;13.24;100.0
64025;BME280;50266;57.446;26.936;2023-09-19T00:49:24;98139.52;;;13.24;100.0
64025;BME280;50266;57.446;26.936;2023-09-19T00:50:24;98147.03;;;13.24;100.0
64025;BME280;50266;57.446;26.936;2023-09-19T00:51:24;98148.11;;;13.24;100.0
64025;BME280;50266;57.446;26.936;2023-09-19T00:52:24;98152.77;;;13.22;100.0
64025;BME280;50266;57.446;26.936;2023-09-19T00:53:24;98156.51;;;13.22;100.0
64025;BME280;50266;57.446;26.936;2023-09-19T00:54:24;98161.08;;;13.2;100.0
64025;BME280;50266;57.446;26.936;2023-09-19T00:55:25;98164.34;;;13.22;100.0
64025;BME280;50266;57.446;26.936;2023-09-19T00:56:24;98170.77;;;13.29;100.0
64025;BME280;50266;57.446;26.936;2023-09-19T00:57:24;98170.5;;;13.38;100.0
64025;BME280;50266;57.446;26.936;2023-09-19T00:58:24;98178.5;;;13.3;100.0
64025;BME280;50266;57.446;26.936;2023-09-19T00:59:24;98188.0;;;13.27;100.0
64025;BME280;50266;57.446;26.936;2023-09-19T01:00:24;98187.34;;;13.21;100.0
64025;BME280;50266;57.446;26.936;2023-09-19T01:01:25;98183.45;;;13.3;100.0
64025;BME280;50266;57.446;26.936;2023-09-19T01:02:25;98184.34;;;13.45;100.0
64025;BME280;50266;57.446;26.936;2023-09-19T01:03:24;98180.46;;;13.34;100.0
64025;BME280;50266;57.446;26.936;2023-09-19T01:04:24;98175.83;;;13.3;100.0
64025;BME280;50266;57.446;26.936;2023-09-19T01:05:24;98180.67;;;13.28;100.0
64025;BME280;50266;57.446;26.936;2023-09-19T01:06:24;98173.66;;;13.27;100.0
64025;BME280;50266;57.446;26.936;2023-09-19T01:07:25;98171.12;;;13.24;100.0
64025;BME280;50266;57.446;26.936;2023-09-19T01:08:24;98169.17;;;13.21;100.0
64025;BME280;50266;57.446;26.936;2023-09-19T01:09:24;98164.48;;;13.2;100.0
64025;BME280;50266;57.446;26.936;2023-09-19T01:10:24;98163.33;;;13.28;100.0
64025;BME280;50266;57.446;26.936;2023-09-19T01:11:35;98159.98;;;13.28;100.0
64025;BME280;50266;57.446;26.936;2023-09-19T01:14:51;98156.34;;;13.22;100.0
64025;BME280;50266;57.446;26.936;2023-09-19T01:15:44;98152.27;;;13.23;100.0
64025;BME280;50266;57.446;26.936;2023-09-19T01:16:50;98157.44;;;13.23;100.0
64025;BME280;50266;57.446;26.936;2023-09-19T01:17:57;98150.5;;;13.22;100.0
64025;BME280;50266;57.446;26.936;2023-09-19T01:18:48;98155.2;;;13.25;100.0
64025;BME280;50266;57.446;26.936;2023-09-19T01:20:06;98153.8;;;13.26;100.0
64025;BME280;50266;57.446;26.936;2023-09-19T01:20:57;98153.28;;;13.23;100.0
64025;BME280;50266;57.446;26.936;2023-09-19T01:22:09;98153.55;;;13.26;100.0
64025;BME280;50266;57.446;26.936;2023-09-19T01:26:18;98150.95;;;13.35;100.0
64025;BME280;50266;57.446;26.936;2023-09-19T01:30:22;98134.8;;;13.37;100.0
64025;BME280;50266;57.446;26.936;2023-09-19T01:31:21;98135.5;;;13.33;100.0
64025;BME280;50266;57.446;26.936;2023-09-19T01:32:20;98136.94;;;13.34;100.0
64025;BME280;50266;57.446;26.936;2023-09-19T01:33:20;98132.7;;;13.37;100.0
64025;BME280;50266;57.446;26.936;2023-09-19T01:34:20;98133.06;;;13.39;100.0
64025;BME280;50266;57.446;26.936;2023-09-19T01:35:20;98131.95;;;13.37;100.0
64025;BME280;50266;57.446;26.936;2023-09-19T01:36:20;98133.64;;;13.39;100.0
64025;BME280;50266;57.446;26.936;2023-09-19T01:37:21;98132.23;;;13.39;100.0
64025;BME280;50266;57.446;26.936;2023-09-19T01:38:20;98124.31;;;13.4;100.0
64025;BME280;50266;57.446;26.936;2023-09-19T01:39:20;98132.34;;;13.42;100.0
64025;BME280;50266;57.446;26.936;2023-09-19T01:40:20;98125.64;;;13.47;100.0
64025;BME280;50266;57.446;26.936;2023-09-19T01:41:26;98130.91;;;13.48;100.0
64025;BME280;50266;57.446;26.936;2023-09-19T01:42:41;98126.6;;;13.44;100.0
64025;BME280;50266;57.446;26.936;2023-09-19T01:43:27;98123.42;;;13.43;100.0
64025;BME280;50266;57.446;26.936;2023-09-19T01:46:37;98123.06;;;13.4;100.0
64025;BME280;50266;57.446;26.936;2023-09-19T01:49:42;98122.19;;;13.56;100.0
64025;BME280;50266;57.446;26.936;2023-09-19T01:50:44;98116.67;;;13.55;100.0
64025;BME280;50266;57.446;26.936;2023-09-19T01:51:58;98118.91;;;13.54;100.0
64025;BME280;50266;57.446;26.936;2023-09-19T01:52:49;98119.17;;;13.54;100.0
64025;BME280;50266;57.446;26.936;2023-09-19T01:53:56;98114.97;;;13.51;100.0
64025;BME280;50266;57.446;26.936;2023-09-19T01:54:51;98111.89;;;13.49;100.0
64025;BME280;50266;57.446;26.936;2023-09-19T01:55:51;98116.81;;;13.52;100.0
64025;BME280;50266;57.446;26.936;2023-09-19T01:56:54;98114.83;;;13.54;100.0
64025;BME280;50266;57.446;26.936;2023-09-19T01:57:58;98116.3;;;13.51;100.0
64025;BME280;50266;57.446;26.936;2023-09-19T01:58:59;98118.98;;;13.53;100.0
64025;BME280;50266;57.446;26.936;2023-09-19T02:00:02;98119.84;;;13.55;100.0
64025;BME280;50266;57.446;26.936;2023-09-19T02:01:00;98113.4;;;13.53;100.0
64025;BME280;50266;57.446;26.936;2023-09-19T02:02:01;98116.62;;;13.59;100.0
64025;BME280;50266;57.446;26.936;2023-09-19T02:03:00;98114.95;;;13.58;100.0
64025;BME280;50266;57.446;26.936;2023-09-19T02:04:00;98113.88;;;13.59;100.0
64025;BME280;50266;57.446;26.936;2023-09-19T02:05:01;98109.27;;;13.58;100.0
64025;BME280;50266;57.446;26.936;2023-09-19T02:06:01;98105.09;;;13.57;100.0
64025;BME280;50266;57.446;26.936;2023-09-19T02:07:01;98102.6;;;13.58;100.0
64025;BME280;50266;57.446;26.936;2023-09-19T02:08:01;98106.35;;;13.57;100.0
64025;BME280;50266;57.446;26.936;2023-09-19T02:09:01;98103.2;;;13.59;100.0
64025;BME280;50266;57.446;26.936;2023-09-19T02:10:01;98105.92;;;13.56;100.0
64025;BME280;50266;57.446;26.936;2023-09-19T02:11:01;98097.88;;;13.53;100.0
64025;BME280;50266;57.446;26.936;2023-09-19T02:12:01;98099.78;;;13.6;100.0
64025;BME280;50266;57.446;26.936;2023-09-19T02:13:01;98099.17;;;13.57;100.0
64025;BME280;50266;57.446;26.936;2023-09-19T02:14:01;98106.11;;;13.59;100.0
64025;BME280;50266;57.446;26.936;2023-09-19T02:15:01;98102.68;;;13.57;100.0
64025;BME280;50266;57.446;26.936;2023-09-19T02:16:01;98102.16;;;13.56;100.0
64025;BME280;50266;57.446;26.936;2023-09-19T02:17:01;98099.44;;;13.59;100.0
64025;BME280;50266;57.446;26.936;2023-09-19T02:18:01;98096.38;;;13.61;100.0
64025;BME280;50266;57.446;26.936;2023-09-19T02:19:01;98096.12;;;13.61;100.0
64025;BME280;50266;57.446;26.936;2023-09-19T02:20:01;98088.8;;;13.63;100.0
64025;BME280;50266;57.446;26.936;2023-09-19T02:21:01;98091.32;;;13.65;100.0
64025;BME280;50266;57.446;26.936;2023-09-19T02:22:01;98091.73;;;13.65;100.0
64025;BME280;50266;57.446;26.936;2023-09-19T02:23:01;98089.84;;;13.68;100.0
64025;BME280;50266;57.446;26.936;2023-09-19T02:24:01;98085.32;;;13.66;100.0
64025;BME280;50266;57.446;26.936;2023-09-19T02:25:01;98079.79;;;13.63;100.0
64025;BME280;50266;57.446;26.936;2023-09-19T02:26:01;98078.96;;;13.64;100.0
64025;BME280;50266;57.446;26.936;2023-09-19T02:27:01;98078.72;;;13.65;100.0
64025;BME280;50266;57.446;26.936;2023-09-19T02:28:01;98081.88;;;13.64;100.0
64025;BME280;50266;57.446;26.936;2023-09-19T02:29:01;98085.21;;;13.63;100.0
64025;BME280;50266;57.446;26.936;2023-09-19T02:30:01;98087.98;;;13.66;100.0
64025;BME280;50266;57.446;26.936;2023-09-19T02:31:01;98083.8;;;13.63;100.0
64025;BME280;50266;57.446;26.936;2023-09-19T02:32:01;98087.48;;;13.65;100.0
64025;BME280;50266;57.446;26.936;2023-09-19T02:33:01;98088.28;;;13.61;100.0
64025;BME280;50266;57.446;26.936;2023-09-19T02:34:01;98089.8;;;13.63;100.0
64025;BME280;50266;57.446;26.936;2023-09-19T02:35:01;98090.98;;;13.64;100.0
64025;BME280;50266;57.446;26.936;2023-09-19T02:36:01;98082.66;;;13.66;100.0
64025;BME280;50266;57.446;26.936;2023-09-19T02:37:04;98082.43;;;13.7;100.0
64025;BME280;50266;57.446;26.936;2023-09-19T02:38:01;98078.09;;;13.7;100.0
64025;BME280;50266;57.446;26.936;2023-09-19T02:39:01;98081.35;;;13.7;100.0
64025;BME280;50266;57.446;26.936;2023-09-19T02:40:01;98087.08;;;13.67;100.0
64025;BME280;50266;57.446;26.936;2023-09-19T02:41:01;98086.31;;;13.65;100.0
64025;BME280;50266;57.446;26.936;2023-09-19T02:42:01;98094.12;;;13.71;100.0
64025;BME280;50266;57.446;26.936;2023-09-19T02:43:01;98101.64;;;13.75;100.0
64025;BME280;50266;57.446;26.936;2023-09-19T02:44:01;98103.2;;;13.73;100.0
64025;BME280;50266;57.446;26.936;2023-09-19T02:45:01;98093.01;;;13.81;100.0
64025;BME280;50266;57.446;26.936;2023-09-19T02:46:01;98097.98;;;13.87;100.0
64025;BME280;50266;57.446;26.936;2023-09-19T02:47:01;98099.2;;;13.83;100.0
64025;BME280;50266;57.446;26.936;2023-09-19T02:48:01;98090.69;;;13.83;100.0
64025;BME280;50266;57.446;26.936;2023-09-19T02:49:02;98090.45;;;13.86;100.0
64025;BME280;50266;57.446;26.936;2023-09-19T02:50:01;98094.42;;;13.81;100.0
64025;BME280;50266;57.446;26.936;2023-09-19T02:51:01;98094.31;;;13.88;100.0
64025;BME280;50266;57.446;26.936;2023-09-19T02:52:01;98091.83;;;13.94;100.0
64025;BME280;50266;57.446;26.936;2023-09-19T02:53:01;98091.98;;;13.93;100.0
64025;BME280;50266;57.446;26.936;2023-09-19T02:54:01;98091.14;;;13.93;100.0
64025;BME280;50266;57.446;26.936;2023-09-19T02:55:01;98082.55;;;13.89;100.0
64025;BME280;50266;57.446;26.936;2023-09-19T02:56:01;98064.11;;;13.9;100.0
64025;BME280;50266;57.446;26.936;2023-09-19T02:57:02;98059.88;;;13.98;100.0
64025;BME280;50266;57.446;26.936;2023-09-19T02:58:01;98065.23;;;14.0;100.0
64025;BME280;50266;57.446;26.936;2023-09-19T02:59:01;98064.89;;;13.99;100.0
64025;BME280;50266;57.446;26.936;2023-09-19T03:00:02;98075.86;;;14.03;100.0
64025;BME280;50266;57.446;26.936;2023-09-19T03:01:10;98087.95;;;14.02;100.0
64025;BME280;50266;57.446;26.936;2023-09-19T03:02:02;98101.05;;;14.0;100.0
64025;BME280;50266;57.446;26.936;2023-09-19T03:03:02;98109.46;;;13.98;100.0
64025;BME280;50266;57.446;26.936;2023-09-19T03:04:02;98108.52;;;13.94;100.0
64025;BME280;50266;57.446;26.936;2023-09-19T03:05:02;98106.76;;;13.94;100.0
64025;BME280;50266;57.446;26.936;2023-09-19T03:06:02;98097.36;;;13.98;100.0
64025;BME280;50266;57.446;26.936;2023-09-19T03:07:02;98094.02;;;14.14;100.0
64025;BME280;50266;57.446;26.936;2023-09-19T03:08:02;98096.19;;;14.13;100.0
64025;BME280;50266;57.446;26.936;2023-09-19T03:09:02;98095.69;;;14.1;100.0
64025;BME280;50266;57.446;26.936;2023-09-19T03:10:02;98090.83;;;14.07;100.0
64025;BME280;50266;57.446;26.936;2023-09-19T03:11:05;98086.27;;;14.12;100.0
64025;BME280;50266;57.446;26.936;2023-09-19T03:12:02;98076.64;;;14.08;100.0
64025;BME280;50266;57.446;26.936;2023-09-19T03:13:02;98070.64;;;14.09;100.0
64025;BME280;50266;57.446;26.936;2023-09-19T03:14:02;98078.23;;;14.08;100.0
64025;BME280;50266;57.446;26.936;2023-09-19T03:15:03;98078.8;;;14.06;100.0
64025;BME280;50266;57.446;26.936;2023-09-19T03:16:02;98082.62;;;14.05;100.0
64025;BME280;50266;57.446;26.936;2023-09-19T03:17:03;98080.38;;;14.04;100.0
64025;BME280;50266;57.446;26.936;2023-09-19T03:18:03;98075.88;;;14.05;100.0
64025;BME280;50266;57.446;26.936;2023-09-19T03:19:02;98073.38;;;14.06;100.0
64025;BME280;50266;57.446;26.936;2023-09-19T03:20:03;98073.13;;;14.08;100.0
64025;BME280;50266;57.446;26.936;2023-09-19T03:21:03;98053.92;;;14.06;100.0
64025;BME280;50266;57.446;26.936;2023-09-19T03:22:03;98045.41;;;14.08;100.0
64025;BME280;50266;57.446;26.936;2023-09-19T03:23:03;98039.33;;;14.08;100.0
64025;BME280;50266;57.446;26.936;2023-09-19T03:24:03;98034.06;;;14.09;100.0
64025;BME280;50266;57.446;26.936;2023-09-19T03:25:03;98048.02;;;14.09;100.0
64025;BME280;50266;57.446;26.936;2023-09-19T03:26:03;98057.26;;;14.06;100.0
64025;BME280;50266;57.446;26.936;2023-09-19T03:27:03;98068.14;;;14.1;100.0
64025;BME280;50266;57.446;26.936;2023-09-19T03:28:03;98063.47;;;14.1;100.0
64025;BME280;50266;57.446;26.936;2023-09-19T03:29:03;98062.46;;;14.1;100.0
64025;BME280;50266;57.446;26.936;2023-09-19T03:30:03;98062.2;;;14.09;100.0
64025;BME280;50266;57.446;26.936;2023-09-19T03:31:03;98062.85;;;14.05;100.0
64025;BME280;50266;57.446;26.936;2023-09-19T03:32:03;98051.0;;;14.07;100.0
64025;BME280;50266;57.446;26.936;2023-09-19T03:33:03;98041.8;;;14.04;100.0
64025;BME280;50266;57.446;26.936;2023-09-19T03:34:03;98041.55;;;14.04;100.0
64025;BME280;50266;57.446;26.936;2023-09-19T03:35:03;98044.8;;;14.03;100.0
64025;BME280;50266;57.446;26.936;2023-09-19T03:36:03;98048.3;;;14.02;100.0
64025;BME280;50266;57.446;26.936;2023-09-19T03:37:03;98041.18;;;13.98;100.0
64025;BME280;50266;57.446;26.936;2023-09-19T03:38:03;98036.61;;;14.01;100.0
64025;BME280;50266;57.446;26.936;2023-09-19T03:39:03;98037.88;;;14.04;100.0
64025;BME280;50266;57.446;26.936;2023-09-19T03:40:03;98028.62;;;14.05;100.0
64025;BME280;50266;57.446;26.936;2023-09-19T03:41:03;98041.48;;;14.05;100.0
64025;BME280;50266;57.446;26.936;2023-09-19T03:42:03;98065.58;;;14.01;100.0
64025;BME280;50266;57.446;26.936;2023-09-19T03:43:03;98073.59;;;14.02;100.0
64025;BME280;50266;57.446;26.936;2023-09-19T03:44:03;98075.11;;;14.04;100.0
64025;BME280;50266;57.446;26.936;2023-09-19T03:45:03;98068.36;;;14.04;100.0
64025;BME280;50266;57.446;26.936;2023-09-19T03:46:03;98061.09;;;14.05;100.0
64025;BME280;50266;57.446;26.936;2023-09-19T03:47:03;98056.09;;;14.05;100.0
64025;BME280;50266;57.446;26.936;2023-09-19T03:48:07;98053.86;;;14.09;100.0
64025;BME280;50266;57.446;26.936;2023-09-19T03:49:04;98052.55;;;14.13;100.0
64025;BME280;50266;57.446;26.936;2023-09-19T03:50:05;98050.11;;;14.16;100.0
64025;BME280;50266;57.446;26.936;2023-09-19T03:51:04;98043.34;;;14.16;100.0
64025;BME280;50266;57.446;26.936;2023-09-19T03:52:04;98027.31;;;14.15;100.0
64025;BME280;50266;57.446;26.936;2023-09-19T03:53:04;98020.8;;;14.17;100.0
64025;BME280;50266;57.446;26.936;2023-09-19T03:54:04;98007.64;;;14.22;100.0
64025;BME280;50266;57.446;26.936;2023-09-19T03:55:04;98000.39;;;14.25;100.0
64025;BME280;50266;57.446;26.936;2023-09-19T03:56:04;97998.72;;;14.26;100.0
64025;BME280;50266;57.446;26.936;2023-09-19T03:57:04;98021.44;;;14.25;100.0
64025;BME280;50266;57.446;26.936;2023-09-19T03:58:05;98043.66;;;14.26;100.0
64025;BME280;50266;57.446;26.936;2023-09-19T03:59:04;98047.34;;;14.28;100.0
64025;BME280;50266;57.446;26.936;2023-09-19T04:00:05;98052.84;;;14.27;100.0
64025;BME280;50266;57.446;26.936;2023-09-19T04:01:05;98044.98;;;14.25;100.0
64025;BME280;50266;57.446;26.936;2023-09-19T04:02:05;98040.73;;;14.27;100.0
64025;BME280;50266;57.446;26.936;2023-09-19T04:03:05;98038.48;;;14.27;100.0
64025;BME280;50266;57.446;26.936;2023-09-19T04:04:05;98033.64;;;14.27;100.0
64025;BME280;50266;57.446;26.936;2023-09-19T04:05:05;98028.38;;;14.26;100.0
64025;BME280;50266;57.446;26.936;2023-09-19T04:06:05;98033.38;;;14.27;100.0
64025;BME280;50266;57.446;26.936;2023-09-19T04:07:05;98036.58;;;14.3;100.0
64025;BME280;50266;57.446;26.936;2023-09-19T04:08:05;98021.55;;;14.3;100.0
64025;BME280;50266;57.446;26.936;2023-09-19T04:09:05;98020.78;;;14.27;100.0
64025;BME280;50266;57.446;26.936;2023-09-19T04:10:05;98017.94;;;14.26;100.0
64025;BME280;50266;57.446;26.936;2023-09-19T04:11:05;98021.54;;;14.3;100.0
64025;BME280;50266;57.446;26.936;2023-09-19T04:12:05;98007.1;;;14.32;100.0
64025;BME280;50266;57.446;26.936;2023-09-19T04:13:05;98008.26;;;14.37;100.0
64025;BME280;50266;57.446;26.936;2023-09-19T04:14:05;98000.23;;;14.35;100.0
64025;BME280;50266;57.446;26.936;2023-09-19T04:15:05;97994.33;;;14.39;100.0
64025;BME280;50266;57.446;26.936;2023-09-19T04:16:05;97990.69;;;14.41;100.0
64025;BME280;50266;57.446;26.936;2023-09-19T04:17:05;97976.7;;;14.39;100.0
64025;BME280;50266;57.446;26.936;2023-09-19T04:18:05;97971.35;;;14.39;100.0
64025;BME280;50266;57.446;26.936;2023-09-19T04:19:05;97966.92;;;14.38;100.0
64025;BME280;50266;57.446;26.936;2023-09-19T04:20:05;97967.02;;;14.4;100.0
64025;BME280;50266;57.446;26.936;2023-09-19T04:21:05;97986.27;;;14.42;100.0
64025;BME280;50266;57.446;26.936;2023-09-19T04:22:05;97999.39;;;14.46;100.0
64025;BME280;50266;57.446;26.936;2023-09-19T04:23:05;98010.09;;;14.46;100.0
64025;BME280;50266;57.446;26.936;2023-09-19T04:24:05;98012.34;;;14.46;100.0
64025;BME280;50266;57.446;26.936;2023-09-19T04:25:05;98017.78;;;14.48;100.0
64025;BME280;50266;57.446;26.936;2023-09-19T04:26:05;98012.02;;;14.49;100.0
64025;BME280;50266;57.446;26.936;2023-09-19T04:27:05;98013.36;;;14.48;100.0
64025;BME280;50266;57.446;26.936;2023-09-19T04:28:05;98001.91;;;14.49;100.0
64025;BME280;50266;57.446;26.936;2023-09-19T04:29:05;98002.82;;;14.46;100.0
64025;BME280;50266;57.446;26.936;2023-09-19T04:30:06;97998.41;;;14.51;100.0
64025;BME280;50266;57.446;26.936;2023-09-19T04:31:05;97994.83;;;14.52;100.0
64025;BME280;50266;57.446;26.936;2023-09-19T04:32:05;97993.98;;;14.52;100.0
64025;BME280;50266;57.446;26.936;2023-09-19T04:33:05;97989.48;;;14.53;100.0
64025;BME280;50266;57.446;26.936;2023-09-19T04:34:08;97988.14;;;14.52;100.0
64025;BME280;50266;57.446;26.936;2023-09-19T04:35:06;97986.87;;;14.57;100.0
64025;BME280;50266;57.446;26.936;2023-09-19T04:36:05;97979.3;;;14.65;100.0
64025;BME280;50266;57.446;26.936;2023-09-19T04:37:06;97976.04;;;14.67;100.0
64025;BME280;50266;57.446;26.936;2023-09-19T04:38:06;97969.52;;;14.67;100.0
64025;BME280;50266;57.446;26.936;2023-09-19T04:39:07;97961.5;;;14.68;100.0
64025;BME280;50266;57.446;26.936;2023-09-19T04:40:10;97959.67;;;14.71;100.0
64025;BME280;50266;57.446;26.936;2023-09-19T04:41:07;97955.23;;;14.71;100.0
64025;BME280;50266;57.446;26.936;2023-09-19T04:42:07;97952.91;;;14.74;100.0
64025;BME280;50266;57.446;26.936;2023-09-19T04:43:07;97937.2;;;14.74;100.0
64025;BME280;50266;57.446;26.936;2023-09-19T04:44:07;97931.84;;;14.74;100.0
64025;BME280;50266;57.446;26.936;2023-09-19T04:45:07;97938.34;;;14.76;100.0
64025;BME280;50266;57.446;26.936;2023-09-19T04:46:07;97925.47;;;14.76;100.0
64025;BME280;50266;57.446;26.936;2023-09-19T04:47:07;97931.34;;;14.73;100.0
64025;BME280;50266;57.446;26.936;2023-09-19T04:48:07;97934.35;;;14.74;100.0
64025;BME280;50266;57.446;26.936;2023-09-19T04:49:07;97925.49;;;14.74;100.0
64025;BME280;50266;57.446;26.936;2023-09-19T04:50:08;97923.73;;;14.72;100.0
64025;BME280;50266;57.446;26.936;2023-09-19T04:51:07;97929.0;;;14.73;100.0
64025;BME280;50266;57.446;26.936;2023-09-19T04:52:07;97919.98;;;14.75;100.0
64025;BME280;50266;57.446;26.936;2023-09-19T04:53:07;97912.35;;;14.82;100.0
64025;BME280;50266;57.446;26.936;2023-09-19T04:54:07;97905.73;;;14.76;100.0
64025;BME280;50266;57.446;26.936;2023-09-19T04:55:11;97893.95;;;14.77;100.0
64025;BME280;50266;57.446;26.936;2023-09-19T04:56:07;97882.29;;;14.75;100.0
64025;BME280;50266;57.446;26.936;2023-09-19T04:57:07;97864.79;;;14.79;100.0
64025;BME280;50266;57.446;26.936;2023-09-19T04:58:07;97874.98;;;14.84;100.0
64025;BME280;50266;57.446;26.936;2023-09-19T04:59:07;97892.38;;;14.83;100.0
64025;BME280;50266;57.446;26.936;2023-09-19T05:00:08;97896.38;;;14.78;100.0
64025;BME280;50266;57.446;26.936;2023-09-19T05:01:07;97900.81;;;14.81;100.0
64025;BME280;50266;57.446;26.936;2023-09-19T05:02:07;97896.05;;;14.77;100.0
64025;BME280;50266;57.446;26.936;2023-09-19T05:03:07;97895.13;;;14.81;100.0
64025;BME280;50266;57.446;26.936;2023-09-19T05:04:07;97891.12;;;14.84;100.0
64025;BME280;50266;57.446;26.936;2023-09-19T05:05:08;97888.53;;;14.85;100.0
64025;BME280;50266;57.446;26.936;2023-09-19T05:06:07;97880.23;;;15.0;100.0
64025;BME280;50266;57.446;26.936;2023-09-19T05:07:07;97874.88;;;15.0;100.0
64025;BME280;50266;57.446;26.936;2023-09-19T05:08:08;97867.6;;;15.0;100.0
64025;BME280;50266;57.446;26.936;2023-09-19T05:09:08;97862.7;;;14.95;100.0
64025;BME280;50266;57.446;26.936;2023-09-19T05:10:08;97860.41;;;15.02;100.0
64025;BME280;50266;57.446;26.936;2023-09-19T05:11:08;97853.38;;;15.04;100.0
64025;BME280;50266;57.446;26.936;2023-09-19T05:12:08;97852.47;;;14.99;100.0
64025;BME280;50266;57.446;26.936;2023-09-19T05:13:08;97847.12;;;15.0;100.0
64025;BME280;50266;57.446;26.936;2023-09-19T05:14:08;97838.5;;;15.03;100.0
64025;BME280;50266;57.446;26.936;2023-09-19T05:15:08;97834.66;;;14.99;100.0
64025;BME280;50266;57.446;26.936;2023-09-19T05:16:08;97821.61;;;15.08;100.0
64025;BME280;50266;57.446;26.936;2023-09-19T05:17:08;97808.3;;;15.13;100.0
64025;BME280;50266;57.446;26.936;2023-09-19T05:18:08;97800.19;;;15.14;100.0
64025;BME280;50266;57.446;26.936;2023-09-19T05:19:08;97810.64;;;15.17;100.0
64025;BME280;50266;57.446;26.936;2023-09-19T05:20:08;97820.77;;;15.16;100.0
64025;BME280;50266;57.446;26.936;2023-09-19T05:21:08;97820.05;;;15.22;100.0
64025;BME280;50266;57.446;26.936;2023-09-19T05:22:08;97809.08;;;15.3;100.0
64025;BME280;50266;57.446;26.936;2023-09-19T05:23:08;97802.8;;;15.29;100.0
64025;BME280;50266;57.446;26.936;2023-09-19T05:24:08;97792.93;;;15.28;100.0
64025;BME280;50266;57.446;26.936;2023-09-19T05:25:09;97787.75;;;15.26;100.0
64025;BME280;50266;57.446;26.936;2023-09-19T05:26:08;97788.08;;;15.28;100.0
64025;BME280;50266;57.446;26.936;2023-09-19T05:27:08;97780.8;;;15.29;100.0
64025;BME280;50266;57.446;26.936;2023-09-19T05:28:09;97775.18;;;15.36;100.0